createdAt,value
2022-10-23T00:01:42.136Z,14.20
2022-10-23T00:04:16.433Z,14.10
2022-10-23T00:06:44.189Z,14.00
2022-10-23T00:09:20.685Z,14.00
2022-10-23T00:11:50.323Z,14.10
2022-10-23T00:14:21.367Z,14.20
2022-10-23T00:16:48.260Z,14.30
2022-10-23T00:19:15.445Z,14.50
2022-10-23T00:21:42.580Z,14.60
2022-10-23T00:26:42.304Z,14.90
2022-10-23T00:29:10.813Z,14.90
2022-10-23T00:31:38.540Z,15.00
2022-10-23T00:34:08.570Z,15.10
2022-10-23T00:36:36.903Z,15.10
2022-10-23T00:39:05.324Z,15.10
2022-10-23T00:41:33.393Z,15.10
2022-10-23T00:44:08.488Z,15.20
2022-10-23T00:46:38.829Z,15.20
2022-10-23T00:49:07.451Z,15.10
2022-10-23T00:51:42.626Z,15.00
2022-10-23T00:54:23.584Z,14.80
2022-10-23T00:56:54.806Z,14.80
2022-10-23T00:59:21.728Z,14.70
2022-10-23T01:01:49.065Z,14.60
2022-10-23T01:04:16.677Z,14.60
2022-10-23T01:07:04.552Z,14.50
2022-10-23T01:10:00.127Z,14.50
2022-10-23T01:13:00.993Z,14.40
2022-10-23T01:16:01.148Z,14.50
2022-10-23T01:18:55.123Z,14.50
2022-10-23T01:21:53.101Z,14.50
2022-10-23T01:24:50.212Z,14.50
2022-10-23T01:27:25.854Z,14.40
2022-10-23T01:30:01.481Z,14.50
2022-10-23T01:33:09.677Z,14.50
2022-10-23T01:36:01.112Z,14.50
2022-10-23T01:38:45.810Z,14.50
2022-10-23T01:41:33.516Z,14.60
2022-10-23T01:44:15.928Z,14.60
2022-10-23T01:46:44.570Z,14.60
2022-10-23T01:49:14.235Z,14.70
2022-10-23T01:51:46.874Z,14.70
2022-10-23T01:54:18.917Z,14.80
2022-10-23T01:56:48.818Z,14.80
2022-10-23T01:59:22.747Z,14.80
2022-10-23T02:01:52.583Z,14.80
2022-10-23T02:04:27.680Z,14.90
2022-10-23T02:06:54.622Z,14.80
2022-10-23T02:09:21.594Z,14.80
2022-10-23T02:11:59.983Z,14.80
2022-10-23T02:14:46.632Z,14.80
2022-10-23T02:17:32.404Z,14.80
2022-10-23T02:20:19.679Z,14.80
2022-10-23T02:23:27.360Z,14.80
2022-10-23T02:26:16.253Z,14.80
2022-10-23T02:28:50.914Z,14.80
2022-10-23T02:31:21.799Z,14.80
2022-10-23T02:33:49.299Z,14.80
2022-10-23T02:36:18.621Z,14.80
2022-10-23T02:38:46.518Z,14.80
2022-10-23T02:41:39.080Z,14.80
2022-10-23T02:44:28.965Z,14.90
2022-10-23T02:47:21.749Z,14.80
2022-10-23T02:50:15.523Z,14.90
2022-10-23T02:53:25.643Z,14.80
2022-10-23T02:56:07.369Z,14.90
2022-10-23T02:59:04.498Z,14.90
2022-10-23T03:01:46.040Z,15.00
2022-10-23T03:04:14.950Z,15.00
2022-10-23T03:06:42.192Z,15.00
2022-10-23T03:09:10.013Z,15.00
2022-10-23T03:11:37.162Z,15.00
2022-10-23T03:14:04.117Z,15.00
2022-10-23T03:16:31.005Z,15.00
2022-10-23T03:18:57.968Z,15.00
2022-10-23T03:21:25.014Z,15.00
2022-10-23T03:23:51.964Z,14.90
2022-10-23T03:26:18.939Z,14.90
2022-10-23T03:28:45.984Z,14.90
2022-10-23T03:31:12.892Z,14.90
2022-10-23T03:33:39.842Z,14.80
2022-10-23T03:36:07.642Z,14.80
2022-10-23T03:38:34.820Z,14.80
2022-10-23T03:41:01.698Z,14.70
2022-10-23T03:43:28.638Z,14.70
2022-10-23T03:45:57.175Z,14.70
2022-10-23T03:48:25.033Z,14.70
2022-10-23T03:50:52.992Z,14.70
2022-10-23T03:53:19.971Z,14.70
2022-10-23T03:55:46.921Z,14.80
2022-10-23T03:58:13.864Z,14.70
2022-10-23T04:00:40.789Z,14.70
2022-10-23T04:03:07.723Z,14.80
2022-10-23T04:05:35.944Z,14.80
2022-10-23T04:08:02.857Z,14.80
2022-10-23T04:10:29.750Z,14.80
2022-10-23T04:12:56.737Z,14.80
2022-10-23T04:15:23.636Z,14.80
2022-10-23T04:17:50.531Z,14.90
2022-10-23T04:20:17.715Z,14.80
2022-10-23T04:22:45.039Z,14.90
2022-10-23T04:25:12.855Z,15.00
2022-10-23T04:27:39.907Z,15.00
2022-10-23T04:30:07.968Z,15.10
2022-10-23T04:32:35.220Z,15.20
2022-10-23T04:35:02.134Z,15.20
2022-10-23T04:37:29.162Z,15.20
2022-10-23T04:39:56.199Z,15.20
2022-10-23T04:42:23.234Z,15.20
2022-10-23T04:44:50.132Z,15.30
2022-10-23T04:47:17.053Z,15.20
2022-10-23T04:49:43.961Z,15.20
2022-10-23T04:52:10.928Z,15.20
2022-10-23T04:54:39.183Z,15.20
2022-10-23T04:57:06.161Z,15.20
2022-10-23T04:59:33.115Z,15.20
2022-10-23T05:02:00.117Z,15.30
2022-10-23T05:04:27.099Z,15.30
2022-10-23T05:06:54.119Z,15.40
2022-10-23T05:09:22.341Z,15.40
2022-10-23T05:11:49.497Z,15.40
2022-10-23T05:14:20.596Z,15.40
2022-10-23T05:17:00.380Z,15.40
2022-10-23T05:19:42.275Z,15.40
2022-10-23T05:22:11.352Z,15.40
2022-10-23T05:24:38.270Z,15.40
2022-10-23T05:27:05.160Z,15.40
2022-10-23T05:29:32.061Z,15.40
2022-10-23T05:32:03.559Z,15.40
2022-10-23T05:34:34.343Z,15.50
2022-10-23T05:37:03.158Z,15.50
2022-10-23T05:39:30.211Z,15.50
2022-10-23T05:41:57.174Z,15.50
2022-10-23T05:44:24.136Z,15.50
2022-10-23T05:46:51.123Z,15.40
2022-10-23T05:49:18.225Z,15.40
2022-10-23T05:51:45.170Z,15.30
2022-10-23T05:54:12.111Z,15.30
2022-10-23T05:56:43.241Z,15.20
2022-10-23T05:59:10.707Z,15.30
2022-10-23T06:01:38.160Z,15.30
2022-10-23T06:04:06.195Z,15.30
2022-10-23T06:06:33.196Z,15.30
2022-10-23T06:09:00.173Z,15.40
2022-10-23T06:11:27.256Z,15.30
2022-10-23T06:13:54.201Z,15.30
2022-10-23T06:16:27.777Z,15.30
2022-10-23T06:18:55.310Z,15.20
2022-10-23T06:21:22.180Z,15.20
2022-10-23T06:23:49.255Z,15.20
2022-10-23T06:26:18.461Z,15.20
2022-10-23T06:28:46.052Z,15.20
2022-10-23T06:31:16.377Z,15.20
2022-10-23T06:33:43.257Z,15.10
2022-10-23T06:36:10.597Z,15.10
2022-10-23T06:38:40.388Z,15.10
2022-10-23T06:41:14.824Z,15.00
2022-10-23T06:43:42.000Z,15.00
2022-10-23T06:46:10.061Z,15.10
2022-10-23T06:48:37.231Z,15.20
2022-10-23T06:51:11.793Z,15.20
2022-10-23T06:53:39.100Z,15.30
2022-10-23T06:56:08.191Z,15.40
2022-10-23T06:58:36.865Z,15.50
2022-10-23T07:01:08.266Z,15.50
2022-10-23T07:03:35.819Z,15.50
2022-10-23T07:06:05.312Z,15.60
2022-10-23T07:08:32.563Z,15.70
2022-10-23T07:11:07.933Z,15.70
2022-10-23T07:13:36.745Z,15.80
2022-10-23T07:16:16.748Z,15.80
2022-10-23T07:18:44.499Z,16.00
2022-10-23T07:21:11.577Z,16.00
2022-10-23T07:23:38.702Z,16.00
2022-10-23T07:26:15.749Z,16.00
2022-10-23T07:28:46.380Z,16.10
2022-10-23T07:31:14.623Z,16.00
2022-10-23T07:33:41.561Z,16.10
2022-10-23T07:36:09.969Z,16.10
2022-10-23T07:38:37.483Z,16.10
2022-10-23T07:41:08.909Z,16.10
2022-10-23T07:43:38.907Z,16.10
2022-10-23T07:46:06.040Z,16.10
2022-10-23T07:48:32.931Z,16.10
2022-10-23T07:51:10.862Z,16.10
2022-10-23T07:53:39.237Z,16.10
2022-10-23T07:56:24.375Z,16.10
2022-10-23T07:58:53.843Z,16.20
2022-10-23T08:01:43.194Z,16.20
2022-10-23T08:04:11.274Z,16.20
2022-10-23T08:06:38.558Z,16.20
2022-10-23T08:09:06.806Z,16.20
2022-10-23T08:11:35.763Z,16.30
2022-10-23T08:14:05.987Z,16.30
2022-10-23T08:16:35.603Z,16.30
2022-10-23T08:19:03.705Z,16.30
2022-10-23T08:21:30.957Z,16.30
2022-10-23T08:24:00.307Z,16.40
2022-10-23T08:26:31.702Z,16.30
2022-10-23T08:28:59.968Z,16.30
2022-10-23T08:31:28.373Z,16.30
2022-10-23T08:33:55.422Z,16.30
2022-10-23T08:36:28.255Z,16.30
2022-10-23T08:38:57.575Z,16.20
2022-10-23T08:41:38.056Z,16.20
2022-10-23T08:44:38.603Z,16.20
2022-10-23T08:47:26.727Z,16.20
2022-10-23T08:50:25.830Z,16.30
2022-10-23T08:53:02.917Z,16.40
2022-10-23T08:55:41.505Z,16.40
2022-10-23T08:58:15.694Z,16.30
2022-10-23T09:00:43.966Z,16.40
2022-10-23T09:03:13.184Z,16.40
2022-10-23T09:05:48.593Z,16.50
2022-10-23T09:08:32.294Z,16.60
2022-10-23T09:11:22.594Z,16.60
2022-10-23T09:14:25.075Z,16.70
2022-10-23T09:17:23.647Z,16.70
2022-10-23T09:20:14.884Z,16.80
2022-10-23T09:22:42.921Z,16.80
2022-10-23T09:25:24.011Z,16.80
2022-10-23T09:27:56.252Z,16.90
2022-10-23T09:30:40.218Z,16.90
2022-10-23T09:33:34.757Z,17.00
2022-10-23T09:36:27.519Z,17.10
2022-10-23T09:38:58.906Z,17.00
2022-10-23T09:41:40.468Z,17.00
2022-10-23T09:44:29.784Z,17.00
2022-10-23T09:47:06.022Z,17.10
2022-10-23T09:49:35.438Z,17.10
2022-10-23T09:52:23.015Z,17.20
2022-10-23T09:54:57.969Z,17.20
2022-10-23T09:57:44.515Z,17.30
2022-10-23T10:00:14.845Z,17.30
2022-10-23T10:03:05.075Z,17.30
2022-10-23T10:05:32.971Z,17.40
2022-10-23T10:08:08.997Z,17.40
2022-10-23T10:10:41.747Z,17.50
2022-10-23T10:13:32.652Z,17.50
2022-10-23T10:16:34.159Z,17.50
2022-10-23T10:19:40.831Z,17.60
2022-10-23T10:22:35.209Z,17.70
2022-10-23T10:25:38.067Z,17.80
2022-10-23T10:28:29.161Z,17.80
2022-10-23T10:31:13.629Z,17.90
2022-10-23T10:34:16.609Z,18.00
2022-10-23T10:36:51.789Z,18.00
2022-10-23T10:39:32.219Z,18.00
2022-10-23T10:42:20.198Z,18.10
2022-10-23T10:45:20.191Z,18.10
2022-10-23T10:48:38.426Z,18.10
2022-10-23T10:51:30.480Z,18.10
2022-10-23T10:54:07.883Z,18.20
2022-10-23T10:56:39.787Z,18.20
2022-10-23T10:59:31.556Z,18.30
2022-10-23T11:02:29.915Z,18.40
2022-10-23T11:05:24.298Z,18.50
2022-10-23T11:08:27.964Z,18.60
2022-10-23T11:11:03.807Z,18.70
2022-10-23T11:13:40.422Z,18.70
2022-10-23T11:16:18.736Z,18.80
2022-10-23T11:19:14.030Z,18.80
2022-10-23T11:21:56.531Z,19.00
2022-10-23T11:24:50.010Z,19.20
2022-10-23T11:28:08.555Z,19.30
2022-10-23T11:31:10.835Z,19.40
2022-10-23T11:34:14.806Z,19.40
2022-10-23T11:36:58.737Z,19.50
2022-10-23T11:39:29.641Z,19.50
2022-10-23T11:42:00.956Z,19.50
2022-10-23T11:44:50.694Z,19.50
2022-10-23T11:47:40.590Z,19.60
2022-10-23T11:50:07.610Z,19.60
2022-10-23T11:53:16.849Z,19.70
2022-10-23T11:55:59.475Z,19.70
2022-10-23T11:58:49.886Z,19.80
2022-10-23T12:01:26.200Z,19.90
2022-10-23T12:03:56.917Z,19.90
2022-10-23T12:06:33.179Z,20.00
2022-10-23T12:09:06.447Z,20.00
2022-10-23T12:11:48.170Z,20.10
2022-10-23T12:14:45.594Z,20.20
2022-10-23T12:17:40.233Z,20.20
2022-10-23T12:20:19.320Z,20.30
2022-10-23T12:23:00.831Z,20.30
2022-10-23T12:25:55.702Z,20.40
2022-10-23T12:28:40.119Z,20.50
2022-10-23T12:31:48.171Z,20.50
2022-10-23T12:34:42.665Z,20.40
2022-10-23T12:38:02.850Z,20.50
2022-10-23T12:40:30.470Z,20.70
2022-10-23T12:43:00.506Z,20.90
2022-10-23T12:45:40.230Z,21.00
2022-10-23T12:48:07.275Z,21.10
2022-10-23T12:50:34.792Z,21.20
2022-10-23T12:53:08.282Z,21.20
2022-10-23T12:58:34.118Z,21.20
2022-10-23T13:01:04.945Z,21.10
2022-10-23T13:03:34.054Z,21.20
2022-10-23T13:06:03.368Z,21.20
2022-10-23T13:08:44.637Z,21.20
2022-10-23T13:11:17.646Z,21.10
2022-10-23T13:13:45.111Z,21.10
2022-10-23T13:16:18.552Z,21.00
2022-10-23T13:18:45.790Z,21.00
2022-10-23T13:21:23.360Z,21.10
2022-10-23T13:23:52.139Z,21.20
2022-10-23T13:26:33.167Z,21.30
2022-10-23T13:29:07.526Z,21.40
2022-10-23T13:31:36.853Z,21.40
2022-10-23T13:34:16.633Z,21.50
2022-10-23T13:37:00.091Z,21.50
2022-10-23T13:39:34.519Z,21.50
2022-10-23T13:42:14.150Z,21.50
2022-10-23T13:44:41.938Z,21.50
2022-10-23T13:47:13.554Z,21.50
2022-10-23T13:49:40.497Z,21.40
2022-10-23T13:52:13.562Z,21.20
2022-10-23T13:54:40.942Z,21.10
2022-10-23T13:57:14.964Z,21.00
2022-10-23T13:59:42.265Z,21.00
2022-10-23T14:02:22.277Z,20.90
2022-10-23T14:04:50.985Z,20.80
2022-10-23T14:07:18.281Z,20.90
2022-10-23T14:09:45.386Z,20.90
2022-10-23T14:12:13.614Z,20.90
2022-10-23T14:14:40.692Z,20.90
2022-10-23T14:17:07.651Z,20.80
2022-10-23T14:19:35.049Z,20.80
2022-10-23T14:22:01.982Z,20.80
2022-10-23T14:24:28.913Z,20.80
2022-10-23T14:26:57.542Z,20.80
2022-10-23T14:29:24.709Z,20.70
2022-10-23T14:31:51.912Z,20.70
2022-10-23T14:34:18.820Z,20.60
2022-10-23T14:36:50.278Z,20.70
2022-10-23T14:39:18.326Z,20.60
2022-10-23T14:41:45.405Z,20.50
2022-10-23T14:44:12.339Z,20.50
2022-10-23T14:46:39.332Z,20.50
2022-10-23T14:49:06.675Z,20.40
2022-10-23T14:51:33.790Z,20.40
2022-10-23T14:54:06.653Z,20.40
2022-10-23T14:56:36.909Z,20.40
2022-10-23T14:59:04.749Z,20.30
2022-10-23T15:01:41.240Z,20.30
2022-10-23T15:04:11.971Z,20.20
2022-10-23T15:06:38.913Z,20.20
2022-10-23T15:09:05.872Z,20.20
2022-10-23T15:11:32.823Z,20.20
2022-10-23T15:14:00.851Z,20.20
2022-10-23T15:16:28.255Z,20.20
2022-10-23T15:18:55.169Z,20.20
2022-10-23T15:21:22.178Z,20.20
2022-10-23T15:23:49.479Z,20.30
2022-10-23T15:26:23.917Z,20.30
2022-10-23T15:29:00.297Z,20.30
2022-10-23T15:31:30.302Z,20.40
2022-10-23T15:33:58.489Z,20.40
2022-10-23T15:36:26.300Z,20.40
2022-10-23T15:38:53.364Z,20.40
2022-10-23T15:41:42.823Z,20.40
2022-10-23T15:44:14.496Z,20.40
2022-10-23T15:46:41.541Z,20.30
2022-10-23T15:49:08.753Z,20.20
2022-10-23T15:51:37.369Z,20.20
2022-10-23T15:54:06.709Z,20.10
2022-10-23T15:56:35.331Z,20.10
2022-10-23T15:59:02.727Z,20.00
2022-10-23T16:01:29.849Z,20.00
2022-10-23T16:03:56.927Z,19.80
2022-10-23T16:06:26.735Z,19.80
2022-10-23T16:11:29.699Z,19.70
2022-10-23T16:13:58.570Z,19.70
2022-10-23T16:16:26.064Z,19.70
2022-10-23T16:18:53.080Z,19.70
2022-10-23T16:21:29.265Z,19.70
2022-10-23T16:23:59.301Z,19.70
2022-10-23T16:26:28.151Z,19.60
2022-10-23T16:29:02.256Z,19.60
2022-10-23T16:31:29.956Z,19.60
2022-10-23T16:34:01.466Z,19.60
2022-10-23T16:36:29.485Z,19.70
2022-10-23T16:38:56.841Z,19.70
2022-10-23T16:41:23.793Z,19.80
2022-10-23T16:43:50.660Z,19.80
2022-10-23T16:46:21.226Z,19.80
2022-10-23T16:48:50.239Z,19.80
2022-10-23T16:51:23.838Z,19.90
2022-10-23T16:53:52.456Z,19.90
2022-10-23T16:56:23.239Z,19.90
2022-10-23T16:58:50.796Z,19.90
2022-10-23T17:01:21.874Z,20.00
2022-10-23T17:03:52.184Z,20.00
2022-10-23T17:06:25.654Z,20.00
2022-10-23T17:08:52.936Z,20.00
2022-10-23T17:11:26.699Z,19.90
2022-10-23T17:13:59.272Z,19.90
2022-10-23T17:16:34.893Z,19.90
2022-10-23T17:19:04.298Z,19.90
2022-10-23T17:21:39.660Z,19.80
2022-10-23T17:24:07.611Z,19.70
2022-10-23T17:26:35.285Z,19.60
2022-10-23T17:29:04.941Z,19.50
2022-10-23T17:31:38.504Z,19.30
2022-10-23T17:34:10.580Z,19.20
2022-10-23T17:36:43.517Z,19.00
2022-10-23T17:39:17.859Z,19.00
2022-10-23T17:41:45.106Z,18.80
2022-10-23T17:44:12.361Z,18.60
2022-10-23T17:46:39.528Z,18.50
2022-10-23T17:49:06.755Z,18.30
2022-10-23T17:51:35.756Z,18.10
2022-10-23T17:54:09.752Z,18.00
2022-10-23T17:56:38.351Z,18.00
2022-10-23T17:59:10.353Z,18.00
2022-10-23T18:01:38.482Z,18.00
2022-10-23T18:04:07.506Z,18.10
2022-10-23T18:06:41.541Z,18.10
2022-10-23T18:09:08.517Z,18.10
2022-10-23T18:11:42.605Z,18.10
2022-10-23T18:14:14.606Z,18.00
2022-10-23T18:16:41.949Z,18.00
2022-10-23T18:19:09.299Z,17.90
2022-10-23T18:21:37.897Z,17.80
2022-10-23T18:24:05.297Z,17.70
2022-10-23T18:26:37.705Z,17.60
2022-10-23T18:29:07.818Z,17.50
2022-10-23T18:31:37.115Z,17.40
2022-10-23T18:34:15.654Z,17.20
2022-10-23T18:36:42.581Z,17.10
2022-10-23T18:39:14.984Z,17.00
2022-10-23T18:41:44.504Z,17.00
2022-10-23T18:44:17.473Z,16.90
2022-10-23T18:46:46.696Z,16.90
2022-10-23T18:49:15.216Z,16.90
2022-10-23T18:51:42.267Z,16.90
2022-10-23T18:54:13.968Z,16.80
2022-10-23T18:56:41.178Z,16.80
2022-10-23T18:59:17.345Z,16.70
2022-10-23T19:01:44.638Z,16.70
2022-10-23T19:04:13.053Z,16.60
2022-10-23T19:06:40.335Z,16.60
2022-10-23T19:09:09.353Z,16.60
2022-10-23T19:11:37.113Z,16.60
2022-10-23T19:14:04.923Z,16.60
2022-10-23T19:16:41.474Z,16.50
2022-10-23T19:19:17.422Z,16.50
2022-10-23T19:21:45.153Z,16.50
2022-10-23T19:24:19.074Z,16.50
2022-10-23T19:26:46.427Z,16.40
2022-10-23T19:29:19.139Z,16.40
2022-10-23T19:31:49.246Z,16.40
2022-10-23T19:34:20.043Z,16.40
2022-10-23T19:36:48.655Z,16.40
2022-10-23T19:39:16.828Z,16.30
2022-10-23T19:41:44.213Z,16.30
2022-10-23T19:44:12.592Z,16.30
2022-10-23T19:46:39.519Z,16.30
2022-10-23T19:49:06.747Z,16.40
2022-10-23T19:51:33.624Z,16.40
2022-10-23T19:54:01.159Z,16.40
2022-10-23T19:56:28.292Z,16.40
2022-10-23T19:58:55.373Z,16.50
2022-10-23T20:01:25.577Z,16.50
2022-10-23T20:03:53.146Z,16.60
2022-10-23T20:06:27.557Z,16.70
2022-10-23T20:08:54.971Z,16.80
2022-10-23T20:11:28.942Z,16.80
2022-10-23T20:13:57.193Z,17.00
2022-10-23T20:16:28.598Z,17.00
2022-10-23T20:18:56.060Z,17.10
2022-10-23T20:21:23.774Z,17.10
2022-10-23T20:23:51.252Z,17.20
2022-10-23T20:26:21.987Z,17.20
2022-10-23T20:28:53.283Z,17.10
2022-10-23T20:31:23.025Z,17.10
2022-10-23T20:33:50.910Z,17.10
2022-10-23T20:36:36.217Z,17.10
2022-10-23T20:39:07.700Z,17.10
2022-10-23T20:41:37.175Z,17.20
2022-10-23T20:44:07.238Z,17.20
2022-10-23T20:46:34.700Z,17.30
2022-10-23T20:49:01.664Z,17.20
2022-10-23T20:51:28.591Z,17.20
2022-10-23T20:53:55.639Z,17.20
2022-10-23T20:56:32.773Z,17.20
2022-10-23T20:59:11.180Z,17.20
2022-10-23T21:01:43.498Z,17.30
2022-10-23T21:04:13.562Z,17.40
2022-10-23T21:06:57.449Z,17.40
2022-10-23T21:09:30.607Z,17.40
2022-10-23T21:11:57.810Z,17.50
2022-10-23T21:14:24.738Z,17.40
2022-10-23T21:16:51.680Z,17.40
2022-10-23T21:19:18.672Z,17.40
2022-10-23T21:21:45.611Z,17.50
2022-10-23T21:24:16.323Z,17.60
2022-10-23T21:26:44.660Z,17.50
2022-10-23T21:29:18.489Z,17.50
2022-10-23T21:31:54.494Z,17.50
2022-10-23T21:34:22.136Z,17.30
2022-10-23T21:37:11.429Z,17.30
2022-10-23T21:39:36.095Z,17.20
2022-10-23T21:42:03.060Z,17.20
2022-10-23T21:44:29.973Z,17.20
2022-10-23T21:46:56.936Z,17.20
2022-10-23T21:49:23.842Z,17.10
2022-10-23T21:51:50.702Z,17.10
2022-10-23T21:54:17.760Z,17.10
2022-10-23T21:56:45.674Z,17.10
2022-10-23T21:59:18.241Z,17.20
2022-10-23T22:01:47.274Z,17.30
2022-10-23T22:04:17.159Z,17.40
2022-10-23T22:06:46.163Z,17.40
2022-10-23T22:09:17.390Z,17.50
2022-10-23T22:11:44.386Z,17.50
2022-10-23T22:14:11.288Z,17.50
2022-10-23T22:16:38.215Z,17.60
2022-10-23T22:19:05.140Z,17.50
2022-10-23T22:21:32.303Z,17.60
2022-10-23T22:24:01.074Z,17.60
2022-10-23T22:26:32.731Z,17.60
2022-10-23T22:29:06.441Z,17.50
2022-10-23T22:31:35.324Z,17.50
2022-10-23T22:34:13.386Z,17.50
2022-10-23T22:36:52.389Z,17.60
2022-10-23T22:39:19.330Z,17.70
2022-10-23T22:41:47.553Z,17.80
2022-10-23T22:44:15.255Z,17.80
2022-10-23T22:46:43.209Z,17.90
2022-10-23T22:49:10.310Z,18.10
2022-10-23T22:51:39.508Z,18.20
2022-10-23T22:54:07.012Z,18.30
2022-10-23T22:56:34.832Z,18.30
2022-10-23T22:59:02.258Z,18.30
2022-10-23T23:01:43.848Z,18.20
2022-10-23T23:04:36.790Z,18.20
2022-10-23T23:07:05.164Z,18.30
2022-10-23T23:09:32.200Z,18.40
2022-10-23T23:11:59.102Z,18.40
2022-10-23T23:14:25.996Z,18.40
2022-10-23T23:16:53.582Z,18.30
2022-10-23T23:19:23.379Z,18.30
2022-10-23T23:21:50.758Z,18.30
2022-10-23T23:24:17.737Z,18.30
2022-10-23T23:26:44.630Z,18.20
2022-10-23T23:29:12.034Z,18.20
2022-10-23T23:31:39.115Z,18.20
2022-10-23T23:34:06.083Z,18.10
2022-10-23T23:36:33.965Z,18.10
2022-10-23T23:39:01.449Z,18.10
2022-10-23T23:41:29.556Z,18.00
2022-10-23T23:43:58.321Z,18.10
2022-10-23T23:46:25.838Z,18.00
2022-10-23T23:48:52.758Z,18.10
2022-10-23T23:51:23.318Z,18.10
2022-10-23T23:53:51.631Z,18.10
2022-10-23T23:56:19.061Z,18.00
2022-10-23T23:58:45.994Z,18.00
